Time;durP1;ratioP1;P1;durP2;ratioP2;P2;SDS_P1;SDS_P2;PMS_P1;PMS_P2;Temp;Humidity;BMP_temperature;BMP_pressure;BME280_temperature;BME280_humidity;BME280_pressure;Samples;Min_cycle;Max_cycle;Signal;HPM_P1;HPM_P2
2023/02/17 00:00:54;;;;;;;7.22;6.63;;;12.80;99.90;;;;;;5041663;28;20043;-82
2023/02/17 00:03:20;;;;;;;7.32;6.75;;;12.80;99.90;;;;;;5035254;28;20041;-83
2023/02/17 00:05:46;;;;;;;7.43;6.85;;;12.70;99.90;;;;;;5040266;28;20045;-82
2023/02/17 00:08:12;;;;;;;7.03;6.43;;;12.80;99.90;;;;;;5029935;28;20030;-83
2023/02/17 00:10:38;;;;;;;7.72;7.13;;;12.80;99.90;;;;;;5047872;28;20037;-82
2023/02/17 00:13:04;;;;;;;7.70;7.00;;;12.80;99.90;;;;;;5043971;28;20033;-83
2023/02/17 00:15:31;;;;;;;7.90;7.20;;;12.80;99.90;;;;;;5044280;28;20037;-82
2023/02/17 00:17:57;;;;;;;8.07;7.28;;;12.80;99.90;;;;;;5004310;28;20060;-82
2023/02/17 00:20:23;;;;;;;8.40;6.97;;;12.80;99.90;;;;;;4998193;28;20042;-83
2023/02/17 00:22:49;;;;;;;8.18;7.40;;;12.80;99.90;;;;;;5012646;28;20023;-82
2023/02/17 00:25:15;;;;;;;8.13;7.28;;;12.80;99.90;;;;;;5027188;28;20034;-82
2023/02/17 00:27:41;;;;;;;7.93;7.15;;;12.80;99.90;;;;;;5013886;28;20580;-82
2023/02/17 00:30:08;;;;;;;8.05;7.30;;;12.80;99.90;;;;;;4998107;28;20034;-82
2023/02/17 00:32:34;;;;;;;7.90;7.10;;;12.90;99.90;;;;;;4995982;28;20034;-82
2023/02/17 00:35:00;;;;;;;8.65;7.60;;;12.80;99.90;;;;;;4996102;28;20522;-82
2023/02/17 00:37:26;;;;;;;7.55;6.80;;;12.80;99.90;;;;;;5012301;28;20045;-82
2023/02/17 00:39:52;;;;;;;8.00;7.28;;;12.80;99.90;;;;;;5026189;28;20037;-82
2023/02/17 00:42:18;;;;;;;10.00;7.50;;;12.90;99.90;;;;;;5024341;28;20042;-82
2023/02/17 00:44:44;;;;;;;8.18;7.47;;;12.90;99.90;;;;;;5011852;28;20033;-83
2023/02/17 00:47:10;;;;;;;8.35;7.20;;;12.80;99.90;;;;;;5048183;28;20483;-82
2023/02/17 00:49:36;;;;;;;8.18;7.32;;;12.80;99.90;;;;;;5016433;28;20030;-83
2023/02/17 00:52:03;;;;;;;8.43;7.65;;;12.90;99.90;;;;;;5021655;28;20030;-82
2023/02/17 00:54:29;;;;;;;7.97;7.18;;;12.90;99.90;;;;;;5034467;28;20406;-83
2023/02/17 00:56:55;;;;;;;7.85;7.25;;;12.90;99.90;;;;;;5038225;28;20036;-83
2023/02/17 00:59:21;;;;;;;7.90;7.10;;;12.90;99.90;;;;;;5015146;28;20033;-83
2023/02/17 01:01:47;;;;;;;8.07;7.38;;;12.90;99.90;;;;;;5028769;28;20042;-82
2023/02/17 01:04:13;;;;;;;8.15;7.45;;;12.90;99.90;;;;;;4993710;28;20097;-83
2023/02/17 01:06:39;;;;;;;10.77;7.88;;;12.90;99.90;;;;;;5009679;28;20486;-82
2023/02/17 01:09:06;;;;;;;9.27;8.65;;;12.90;99.90;;;;;;5023462;28;20064;-83
2023/02/17 01:11:33;;;;;;;9.43;8.73;;;12.90;99.90;;;;;;5000303;28;20046;-82
2023/02/17 01:14:01;;;;;;;9.45;8.68;;;12.80;99.90;;;;;;5032515;28;20030;-82
2023/02/17 01:16:34;;;;;;;8.98;8.30;;;12.80;99.90;;;;;;5042501;28;20045;-82
2023/02/17 01:19:01;;;;;;;8.75;7.97;;;12.90;99.90;;;;;;5010948;28;20038;-82
2023/02/17 01:21:28;;;;;;;8.10;7.30;;;12.90;99.90;;;;;;5040321;28;20400;-82
2023/02/17 01:23:55;;;;;;;8.02;7.43;;;12.90;99.90;;;;;;5006132;28;20030;-83
2023/02/17 01:26:23;;;;;;;8.70;7.82;;;12.90;99.90;;;;;;5005505;28;20037;-82
2023/02/17 01:28:49;;;;;;;8.02;7.32;;;12.90;99.90;;;;;;4986761;28;20038;-82
2023/02/17 01:31:16;;;;;;;8.00;7.30;;;12.90;99.90;;;;;;5045838;28;20038;-83
2023/02/17 01:33:42;;;;;;;9.10;7.35;;;12.90;99.90;;;;;;5029226;28;20041;-82
2023/02/17 01:36:09;;;;;;;8.25;7.55;;;12.80;99.90;;;;;;5006079;28;20383;-82
2023/02/17 01:38:36;;;;;;;8.13;7.53;;;12.90;99.90;;;;;;5025220;28;20030;-83
2023/02/17 01:41:02;;;;;;;7.85;7.13;;;12.90;99.90;;;;;;5033651;28;20053;-82
2023/02/17 01:43:28;;;;;;;7.68;7.07;;;12.90;99.90;;;;;;5006505;28;20033;-83
2023/02/17 01:46:08;;;;;;;7.30;6.70;;;13.00;99.90;;;;;;5012615;28;20053;-83
2023/02/17 01:48:37;;;;;;;7.50;6.90;;;13.00;99.90;;;;;;5059846;28;20029;-83
2023/02/17 01:51:23;;;;;;;7.90;7.30;;;13.00;99.90;;;;;;5015075;28;20042;-82
2023/02/17 01:53:54;;;;;;;7.90;7.30;;;12.90;99.90;;;;;;5006714;28;20037;-83
2023/02/17 01:56:20;;;;;;;7.18;6.63;;;12.90;99.90;;;;;;5010351;28;20037;-82
2023/02/17 01:58:50;;;;;;;7.55;6.95;;;12.90;99.90;;;;;;5015779;28;20034;-83
2023/02/17 02:01:18;;;;;;;7.70;7.10;;;13.00;99.90;;;;;;5024423;28;20046;-83
2023/02/17 02:03:44;;;;;;;8.05;7.43;;;13.00;99.90;;;;;;5012218;28;20026;-82
2023/02/17 02:06:15;;;;;;;7.55;6.95;;;13.00;99.90;;;;;;5019506;28;20480;-82
2023/02/17 02:08:57;;;;;;;8.43;7.72;;;12.90;99.90;;;;;;5008629;28;20479;-83
2023/02/17 02:11:23;;;;;;;7.85;7.25;;;12.90;99.90;;;;;;5007886;28;20041;-83
2023/02/17 02:13:49;;;;;;;7.20;6.70;;;12.90;99.90;;;;;;5004917;28;20030;-83
2023/02/17 02:16:39;;;;;;;7.30;6.70;;;12.90;99.90;;;;;;4998480;28;20039;-83
2023/02/17 02:19:21;;;;;;;8.13;7.53;;;13.00;99.90;;;;;;5022324;28;20033;-83
2023/02/17 02:22:00;;;;;;;8.38;7.78;;;13.00;99.90;;;;;;5019026;28;20046;-82
2023/02/17 02:24:49;;;;;;;8.27;7.68;;;13.00;99.90;;;;;;5021855;28;20057;-83
2023/02/17 02:27:33;;;;;;;9.10;8.50;;;12.90;99.90;;;;;;4995610;28;20046;-83
2023/02/17 02:30:18;;;;;;;9.10;8.50;;;13.00;99.90;;;;;;5008213;28;20384;-83
2023/02/17 02:33:16;;;;;;;9.18;8.57;;;13.00;99.90;;;;;;5004135;28;20039;-83
2023/02/17 02:36:14;;;;;;;9.95;9.25;;;13.00;99.90;;;;;;4985275;28;20050;-83
2023/02/17 02:39:01;;;;;;;9.65;8.95;;;13.00;99.90;;;;;;4933107;29;20598;-82
2023/02/17 02:42:07;;;;;;;10.05;9.35;;;13.00;99.90;;;;;;4915232;29;20040;-83
2023/02/17 02:44:33;;;;;;;9.73;9.02;;;13.10;99.90;;;;;;4905587;29;20044;-83
2023/02/17 02:47:26;;;;;;;9.70;8.85;;;13.00;99.90;;;;;;4899387;29;20405;-83
2023/02/17 02:49:52;;;;;;;7.70;7.20;;;13.00;99.90;;;;;;4907151;29;20226;-83
2023/02/17 02:52:23;;;;;;;7.80;7.20;;;13.00;99.90;;;;;;4926836;29;20457;-83
2023/02/17 02:55:15;;;;;;;8.57;7.97;;;12.90;99.90;;;;;;4925479;29;20044;-83
2023/02/17 02:57:44;;;;;;;8.05;7.45;;;12.90;99.90;;;;;;4921169;29;20049;-83
2023/02/17 03:00:24;;;;;;;7.53;7.00;;;12.90;99.90;;;;;;4907555;29;20049;-83
2023/02/17 03:02:56;;;;;;;8.52;7.72;;;12.90;99.90;;;;;;4907220;29;20044;-83
2023/02/17 03:05:51;;;;;;;7.90;7.30;;;12.90;99.90;;;;;;4874315;29;20059;-83
2023/02/17 03:08:23;;;;;;;7.32;6.80;;;12.90;99.90;;;;;;4883877;29;20044;-83
2023/02/17 03:10:50;;;;;;;8.23;7.63;;;12.80;99.90;;;;;;4870558;29;20045;-83
2023/02/17 03:13:17;;;;;;;10.07;9.38;;;12.80;99.90;;;;;;4900908;29;20521;-83
2023/02/17 03:15:43;;;;;;;9.73;9.02;;;12.80;99.90;;;;;;4872098;29;20174;-83
2023/02/17 03:18:09;;;;;;;10.63;9.90;;;12.80;99.90;;;;;;4879736;29;20493;-83
2023/02/17 03:20:37;;;;;;;10.20;9.60;;;12.80;99.90;;;;;;4899040;29;20156;-83
2023/02/17 03:23:05;;;;;;;9.88;9.27;;;12.80;99.90;;;;;;4905718;29;20074;-83
2023/02/17 03:25:31;;;;;;;10.48;9.77;;;12.80;99.90;;;;;;4897953;29;20052;-83
2023/02/17 03:27:57;;;;;;;9.30;8.57;;;12.90;99.90;;;;;;4900519;29;20056;-83
2023/02/17 03:30:23;;;;;;;8.70;8.02;;;13.00;99.90;;;;;;4930537;28;20032;-83
2023/02/17 03:32:49;;;;;;;7.55;7.05;;;13.00;99.90;;;;;;4898523;29;20051;-83
2023/02/17 03:35:15;;;;;;;7.57;6.97;;;13.00;99.90;;;;;;4900426;29;20051;-83
2023/02/17 03:37:41;;;;;;;7.85;7.20;;;12.90;99.90;;;;;;4907187;29;20370;-83
2023/02/17 03:40:08;;;;;;;8.60;7.80;;;12.90;99.90;;;;;;4909463;29;20047;-83
2023/02/17 03:42:34;;;;;;;9.27;8.55;;;12.90;99.90;;;;;;4903184;29;20401;-82
2023/02/17 03:45:00;;;;;;;9.60;8.98;;;13.00;99.90;;;;;;4959952;28;20054;-82
2023/02/17 03:47:26;;;;;;;8.48;7.88;;;12.90;99.90;;;;;;5039995;28;20040;-83
2023/02/17 03:49:52;;;;;;;8.75;7.88;;;12.80;99.90;;;;;;5013264;28;20033;-83
2023/02/17 03:52:18;;;;;;;8.48;7.80;;;12.80;99.90;;;;;;5012491;28;20034;-83
2023/02/17 03:54:44;;;;;;;9.90;9.10;;;12.80;99.90;;;;;;5009102;28;20042;-83
2023/02/17 03:57:10;;;;;;;8.57;7.97;;;12.80;99.90;;;;;;5021698;28;20042;-83
2023/02/17 03:59:36;;;;;;;8.35;7.75;;;12.90;99.90;;;;;;5010952;28;20037;-83
2023/02/17 04:02:03;;;;;;;9.27;8.52;;;12.80;99.90;;;;;;4992680;28;20050;-83
2023/02/17 04:04:29;;;;;;;10.13;9.43;;;12.80;99.90;;;;;;4991475;28;20038;-83
2023/02/17 04:06:55;;;;;;;11.18;10.02;;;12.80;99.90;;;;;;5038525;28;20050;-83
2023/02/17 04:09:21;;;;;;;11.70;10.77;;;12.80;99.90;;;;;;4990909;28;20114;-83
2023/02/17 04:11:47;;;;;;;12.35;11.10;;;12.80;99.90;;;;;;5006351;28;20038;-84
2023/02/17 04:14:13;;;;;;;10.20;9.30;;;12.90;99.90;;;;;;5003578;28;20038;-83
2023/02/17 04:16:39;;;;;;;11.10;10.30;;;12.80;99.90;;;;;;4991976;28;20042;-83
2023/02/17 04:19:06;;;;;;;10.95;10.18;;;12.80;99.90;;;;;;4991211;28;20407;-83
2023/02/17 04:21:32;;;;;;;12.75;11.85;;;12.80;99.90;;;;;;5034451;28;20515;-83
2023/02/17 04:24:01;;;;;;;12.88;11.88;;;12.90;99.90;;;;;;5031237;28;20049;-83
2023/02/17 04:26:28;;;;;;;11.98;11.25;;;12.80;99.90;;;;;;5010447;28;20042;-83
2023/02/17 04:28:54;;;;;;;12.20;11.30;;;12.80;99.90;;;;;;5038999;28;20110;-84
2023/02/17 04:31:20;;;;;;;12.85;11.95;;;12.80;99.90;;;;;;5016291;28;20038;-83
2023/02/17 04:33:46;;;;;;;13.68;12.73;;;12.80;99.90;;;;;;5013993;28;20048;-82
2023/02/17 04:36:12;;;;;;;13.88;12.93;;;12.80;99.90;;;;;;5026950;28;20045;-83
2023/02/17 04:38:38;;;;;;;13.95;13.05;;;12.80;99.90;;;;;;5032886;28;20484;-84
2023/02/17 04:41:05;;;;;;;14.20;13.20;;;12.90;99.90;;;;;;4999648;28;20057;-83
2023/02/17 04:43:31;;;;;;;14.80;13.80;;;12.90;99.90;;;;;;5038508;28;20040;-83
2023/02/17 04:45:57;;;;;;;14.07;13.07;;;12.90;99.90;;;;;;5021533;28;20046;-83
2023/02/17 04:48:24;;;;;;;15.27;14.27;;;12.80;99.90;;;;;;5027779;28;20068;-82
2023/02/17 04:50:50;;;;;;;15.02;13.93;;;12.80;99.90;;;;;;5014463;28;20387;-83
2023/02/17 04:53:16;;;;;;;15.18;14.27;;;12.80;99.90;;;;;;5046954;28;20041;-82
2023/02/17 04:55:42;;;;;;;14.45;13.50;;;12.90;99.90;;;;;;5035669;28;20037;-82
2023/02/17 04:58:09;;;;;;;15.02;14.02;;;12.80;99.90;;;;;;5028570;28;20029;-82
2023/02/17 05:00:35;;;;;;;15.05;14.07;;;12.80;99.90;;;;;;5020276;28;20034;-81
2023/02/17 05:03:01;;;;;;;14.88;13.98;;;12.90;99.90;;;;;;5021509;28;20482;-82
2023/02/17 05:05:27;;;;;;;12.65;11.82;;;12.80;99.90;;;;;;5014650;28;20030;-81
2023/02/17 05:07:53;;;;;;;15.07;14.00;;;12.80;99.90;;;;;;5021064;28;20044;-82
2023/02/17 05:10:19;;;;;;;14.82;13.65;;;12.80;99.90;;;;;;5034501;28;20041;-82
2023/02/17 05:12:45;;;;;;;14.40;13.40;;;12.80;99.90;;;;;;4998556;28;20052;-82
2023/02/17 05:15:12;;;;;;;42.05;15.13;;;12.70;99.90;;;;;;5033084;28;20056;-82
2023/02/17 05:17:38;;;;;;;292.20;36.33;;;12.70;99.90;;;;;;5006268;28;20037;-82
2023/02/17 05:20:05;;;;;;;11.85;10.63;;;12.70;99.90;;;;;;5000554;28;20486;-82
2023/02/17 05:22:31;;;;;;;51.65;12.15;;;12.70;99.90;;;;;;5014394;28;20056;-82
2023/02/17 05:24:57;;;;;;;115.22;17.17;;;12.70;99.90;;;;;;5030048;28;20093;-82
2023/02/17 05:27:23;;;;;;;16.90;8.55;;;12.80;99.90;;;;;;5024928;28;20041;-82
2023/02/17 05:29:50;;;;;;;11.50;8.48;;;12.80;99.90;;;;;;5014268;28;20506;-82
2023/02/17 05:32:17;;;;;;;212.82;20.13;;;12.80;99.90;;;;;;5012419;28;20041;-82
2023/02/17 05:34:43;;;;;;;237.52;16.70;;;12.80;99.90;;;;;;5016517;28;20057;-82
2023/02/17 05:37:09;;;;;;;192.30;17.80;;;12.90;99.90;;;;;;4998823;28;20033;-82
2023/02/17 05:39:35;;;;;;;16.42;9.10;;;12.90;99.90;;;;;;5029840;28;20034;-82
2023/02/17 05:42:01;;;;;;;144.43;14.38;;;12.80;99.90;;;;;;5020268;28;20042;-82
2023/02/17 05:44:27;;;;;;;21.90;9.45;;;12.80;99.90;;;;;;4993285;28;20132;-82
2023/02/17 05:46:53;;;;;;;329.58;22.45;;;12.80;99.90;;;;;;5049795;28;20042;-82
2023/02/17 05:49:19;;;;;;;94.25;11.60;;;12.80;99.90;;;;;;5029242;28;20407;-82
2023/02/17 05:51:46;;;;;;;308.42;20.92;;;12.70;99.90;;;;;;5009336;28;20042;-82
2023/02/17 05:54:12;;;;;;;15.32;8.00;;;12.80;99.90;;;;;;5026230;28;20042;-82
2023/02/17 05:56:38;;;;;;;8.75;7.95;;;12.80;99.90;;;;;;4994346;28;20035;-82
2023/02/17 05:59:04;;;;;;;8.35;7.65;;;12.80;99.90;;;;;;5008811;28;20101;-82
2023/02/17 06:01:30;;;;;;;172.10;14.23;;;12.80;99.90;;;;;;5004367;28;20034;-82
2023/02/17 06:03:56;;;;;;;9.05;8.15;;;12.80;99.90;;;;;;5026064;28;20038;-82
2023/02/17 06:06:22;;;;;;;9.57;8.57;;;12.80;99.90;;;;;;5025589;28;20042;-82
2023/02/17 06:08:48;;;;;;;9.45;8.55;;;12.80;99.90;;;;;;5027965;28;20022;-82
2023/02/17 06:11:14;;;;;;;9.68;8.77;;;12.80;99.90;;;;;;5013781;28;20045;-81
2023/02/17 06:13:40;;;;;;;9.32;8.52;;;12.80;99.90;;;;;;5029159;28;20030;-82
2023/02/17 06:16:07;;;;;;;10.82;9.82;;;12.80;99.90;;;;;;5011575;28;20495;-82
2023/02/17 06:18:33;;;;;;;106.53;12.93;;;12.90;99.90;;;;;;5011103;28;20375;-82
2023/02/17 06:20:59;;;;;;;185.73;19.60;;;12.90;99.90;;;;;;5028708;28;20428;-82
2023/02/17 06:23:25;;;;;;;12.07;11.10;;;12.90;99.90;;;;;;5042085;28;20030;-82
2023/02/17 06:25:51;;;;;;;12.75;11.75;;;12.90;99.90;;;;;;4992094;28;20064;-82
2023/02/17 06:28:18;;;;;;;80.47;15.90;;;12.90;99.90;;;;;;5005100;28;20029;-82
2023/02/17 06:30:44;;;;;;;15.20;13.52;;;12.90;99.90;;;;;;5031022;28;20033;-81
2023/02/17 06:33:10;;;;;;;12.90;11.90;;;12.90;99.90;;;;;;5016557;28;20034;-82
2023/02/17 06:35:36;;;;;;;14.43;13.40;;;12.90;99.90;;;;;;5030282;28;20025;-82
2023/02/17 06:38:02;;;;;;;13.38;12.43;;;12.90;99.90;;;;;;5013321;28;20044;-83
2023/02/17 06:40:28;;;;;;;95.50;15.80;;;12.80;99.90;;;;;;5044261;28;20037;-83
2023/02/17 06:42:54;;;;;;;14.45;13.45;;;12.90;99.90;;;;;;5008035;28;20038;-84
2023/02/17 06:45:20;;;;;;;11.95;11.10;;;12.90;99.90;;;;;;5032953;28;20388;-83
2023/02/17 06:47:46;;;;;;;10.75;9.77;;;12.90;99.90;;;;;;5022979;28;20034;-87
2023/02/17 06:50:14;;;;;;;129.55;19.55;;;12.90;99.90;;;;;;5010797;28;20037;-82
2023/02/17 06:52:40;;;;;;;17.80;11.85;;;12.90;99.90;;;;;;5023772;28;20050;-84
2023/02/17 06:55:07;;;;;;;10.93;10.05;;;12.90;99.90;;;;;;4998577;28;20525;-82
2023/02/17 06:57:33;;;;;;;15.23;11.25;;;12.90;99.90;;;;;;5010468;28;20032;-82
2023/02/17 06:59:59;;;;;;;104.85;20.98;;;12.90;99.90;;;;;;5011377;28;20030;-84
2023/02/17 07:02:26;;;;;;;134.88;19.50;;;12.90;99.90;;;;;;5042322;28;20493;-84
2023/02/17 07:04:52;;;;;;;11.63;10.68;;;12.90;99.90;;;;;;5009153;28;20049;-84
2023/02/17 07:07:18;;;;;;;12.35;11.30;;;12.80;99.90;;;;;;5014320;28;20046;-84
2023/02/17 07:09:44;;;;;;;555.75;35.33;;;12.90;99.90;;;;;;5042525;28;20693;-83
2023/02/17 07:12:10;;;;;;;339.25;26.02;;;12.90;99.90;;;;;;5033046;28;20042;-85
2023/02/17 07:14:36;;;;;;;18.38;16.23;;;12.80;99.90;;;;;;5026145;28;20039;-84
2023/02/17 07:17:02;;;;;;;20.00;17.95;;;12.80;99.90;;;;;;4992295;28;20041;-83
2023/02/17 07:19:28;;;;;;;21.33;17.10;;;12.90;99.90;;;;;;5015850;28;20050;-83
2023/02/17 07:21:55;;;;;;;88.10;16.60;;;12.80;99.90;;;;;;5010612;28;20487;-84
2023/02/17 07:24:21;;;;;;;17.65;16.00;;;12.80;99.90;;;;;;5010443;28;20044;-85
2023/02/17 07:26:47;;;;;;;49.20;13.10;;;12.80;99.90;;;;;;4994477;28;20068;-85
2023/02/17 07:29:13;;;;;;;49.67;12.98;;;12.90;99.90;;;;;;4983113;28;20038;-86
2023/02/17 07:31:39;;;;;;;12.50;11.20;;;12.80;99.90;;;;;;4994986;28;20042;-85
2023/02/17 07:34:05;;;;;;;14.30;12.95;;;12.80;99.90;;;;;;5024093;28;20475;-84
2023/02/17 07:36:31;;;;;;;66.78;13.13;;;12.90;99.90;;;;;;5025000;28;20038;-85
2023/02/17 07:38:58;;;;;;;63.45;12.82;;;12.90;99.90;;;;;;4990923;28;20471;-84
2023/02/17 07:41:27;;;;;;;48.03;17.15;;;12.90;99.90;;;;;;5006904;28;20049;-86
2023/02/17 07:43:54;;;;;;;414.80;32.28;;;12.80;99.90;;;;;;5001526;28;20030;-85
2023/02/17 07:46:20;;;;;;;157.18;20.42;;;12.80;99.90;;;;;;5051608;28;20503;-84
2023/02/17 07:48:46;;;;;;;94.20;16.30;;;12.90;99.90;;;;;;5007490;28;20041;-84
2023/02/17 07:51:14;;;;;;;30.20;14.40;;;12.90;99.90;;;;;;5035970;28;20030;-81
2023/02/17 07:53:41;;;;;;;321.33;28.50;;;12.90;99.90;;;;;;5024020;28;20030;-82
2023/02/17 07:56:11;;;;;;;44.47;17.48;;;12.90;99.90;;;;;;4993497;28;20030;-83
2023/02/17 07:58:39;;;;;;;28.55;18.58;;;13.00;99.90;;;;;;5035935;28;20459;-83
2023/02/17 08:01:06;;;;;;;331.38;27.83;;;13.00;99.90;;;;;;4995698;28;20046;-84
2023/02/17 08:03:32;;;;;;;50.10;18.60;;;13.00;99.90;;;;;;5021442;28;20037;-84
2023/02/17 08:05:58;;;;;;;216.30;21.63;;;13.00;99.90;;;;;;5004970;28;20037;-84
2023/02/17 08:13:59;;;;;;;227.45;22.95;;;13.10;99.90;;;;;;5033446;28;20132;-85
2023/02/17 08:16:27;;;;;;;810.13;46.28;;;13.10;99.90;;;;;;5027938;28;20046;-85
2023/02/17 08:18:54;;;;;;;90.75;17.92;;;13.10;99.90;;;;;;5020970;28;20037;-87
2023/02/17 08:21:21;;;;;;;27.50;17.73;;;13.10;99.90;;;;;;4989327;28;20057;-86
2023/02/17 08:23:47;;;;;;;21.77;17.15;;;13.20;99.90;;;;;;5039531;28;20041;-85
2023/02/17 08:26:14;;;;;;;101.10;20.15;;;13.20;99.90;;;;;;5024722;28;20038;-84
2023/02/17 08:28:40;;;;;;;521.45;34.65;;;13.20;99.90;;;;;;5011886;28;20410;-86
2023/02/17 08:31:14;;;;;;;660.17;40.65;;;13.20;99.90;;;;;;5007408;28;20038;-85
2023/02/17 08:33:40;;;;;;;220.77;21.50;;;13.20;99.90;;;;;;5026091;28;20494;-86
2023/02/17 08:36:07;;;;;;;177.45;22.60;;;13.30;99.90;;;;;;5033397;28;20029;-86
2023/02/17 08:38:33;;;;;;;80.10;20.00;;;13.30;99.90;;;;;;5030508;28;20034;-84
2023/02/17 08:40:59;;;;;;;32.72;15.25;;;13.20;99.90;;;;;;5027754;28;20391;-84
2023/02/17 08:43:26;;;;;;;17.10;15.27;;;13.20;99.90;;;;;;5002280;28;20046;-86
2023/02/17 08:45:52;;;;;;;15.00;12.45;;;13.20;99.90;;;;;;5033549;28;20030;-86
2023/02/17 08:48:18;;;;;;;15.57;12.07;;;13.20;99.90;;;;;;5013805;28;20041;-86
2023/02/17 08:50:46;;;;;;;74.38;14.95;;;13.20;99.90;;;;;;4998493;28;20502;-83
2023/02/17 08:53:12;;;;;;;128.40;15.15;;;13.20;99.90;;;;;;5003913;28;20034;-82
2023/02/17 08:55:38;;;;;;;136.30;16.45;;;13.20;99.90;;;;;;5014360;28;20029;-82
2023/02/17 08:58:04;;;;;;;13.10;10.80;;;13.30;99.90;;;;;;5014339;28;20033;-82
2023/02/17 09:00:30;;;;;;;13.70;10.15;;;13.30;99.90;;;;;;5014027;28;20030;-81
2023/02/17 09:02:56;;;;;;;11.68;10.48;;;13.40;99.90;;;;;;5013916;28;20379;-81
2023/02/17 09:05:22;;;;;;;12.27;10.98;;;13.40;99.90;;;;;;5013485;28;20033;-81
2023/02/17 09:07:48;;;;;;;11.07;9.90;;;13.40;99.90;;;;;;5014568;28;20049;-81
2023/02/17 09:10:15;;;;;;;24.67;10.23;;;13.50;99.90;;;;;;5001358;28;20042;-81
2023/02/17 09:12:41;;;;;;;54.90;11.05;;;13.40;99.90;;;;;;5013612;28;20045;-81
2023/02/17 09:15:07;;;;;;;163.77;26.60;;;13.40;99.90;;;;;;5013985;28;20030;-81
2023/02/17 09:17:38;;;;;;;21.13;10.57;;;13.50;99.90;;;;;;5014205;28;20383;-80
2023/02/17 09:20:05;;;;;;;10.73;9.73;;;13.60;99.90;;;;;;5012047;28;20053;-80
2023/02/17 09:22:31;;;;;;;15.77;11.88;;;13.70;99.90;;;;;;5012058;28;20027;-84
2023/02/17 09:24:58;;;;;;;12.48;11.25;;;13.80;99.90;;;;;;5034714;28;20048;-83
2023/02/17 09:27:24;;;;;;;34.00;9.27;;;13.70;99.90;;;;;;4992504;28;20050;-82
2023/02/17 09:29:50;;;;;;;39.00;11.32;;;13.80;99.90;;;;;;5012071;28;20421;-81
2023/02/17 09:32:16;;;;;;;11.63;10.63;;;13.80;99.90;;;;;;4997785;28;20042;-82
2023/02/17 09:34:49;;;;;;;18.95;11.32;;;13.80;99.90;;;;;;5038874;28;20030;-84
2023/02/17 09:37:16;;;;;;;73.53;14.40;;;13.80;99.90;;;;;;5040972;28;20053;-83
2023/02/17 09:39:43;;;;;;;14.23;13.13;;;13.90;99.90;;;;;;5014099;28;20033;-82
2023/02/17 09:42:19;;;;;;;13.23;12.18;;;13.90;99.90;;;;;;5012141;28;20482;-83
2023/02/17 09:44:51;;;;;;;59.80;16.63;;;13.90;99.90;;;;;;4979187;28;20068;-82
2023/02/17 09:47:24;;;;;;;14.70;13.57;;;13.90;99.90;;;;;;5001693;28;20054;-83
2023/02/17 09:49:56;;;;;;;45.25;17.13;;;13.90;99.90;;;;;;5030309;28;20022;-82
2023/02/17 09:52:32;;;;;;;13.35;12.25;;;13.90;99.90;;;;;;5001365;28;20034;-85
2023/02/17 09:55:00;;;;;;;12.30;11.18;;;14.00;99.90;;;;;;5024752;28;20025;-83
2023/02/17 09:57:28;;;;;;;23.02;14.40;;;14.10;99.90;;;;;;5011877;28;20053;-83
2023/02/17 10:00:04;;;;;;;11.25;10.15;;;14.10;99.90;;;;;;4995413;28;20048;-83
2023/02/17 10:02:54;;;;;;;80.57;14.32;;;14.10;99.90;;;;;;4988374;28;20045;-84
2023/02/17 10:05:22;;;;;;;11.82;10.82;;;14.10;99.90;;;;;;5009021;28;20037;-84
2023/02/17 10:08:11;;;;;;;12.40;11.40;;;14.10;99.90;;;;;;5028824;28;20034;-85
2023/02/17 10:11:07;;;;;;;11.48;10.40;;;14.10;99.90;;;;;;5022103;28;20038;-83
2023/02/17 10:13:34;;;;;;;11.60;10.48;;;14.10;99.90;;;;;;4973679;28;22063;-83
2023/02/17 10:16:03;;;;;;;12.10;11.10;;;14.10;99.90;;;;;;4994748;28;20038;-83
2023/02/17 10:18:40;;;;;;;25.70;11.52;;;14.10;99.90;;;;;;5012371;28;20038;-86
2023/02/17 10:21:27;;;;;;;12.60;11.38;;;14.20;99.90;;;;;;5006778;28;20412;-84
2023/02/17 10:23:53;;;;;;;13.50;12.35;;;14.30;99.90;;;;;;5027602;28;20037;-83
2023/02/17 10:26:25;;;;;;;11.40;10.38;;;14.30;99.90;;;;;;5031150;28;20383;-82
2023/02/17 10:28:52;;;;;;;12.15;11.15;;;14.20;99.90;;;;;;5012149;28;20034;-85
2023/02/17 10:31:32;;;;;;;11.75;10.70;;;14.30;99.90;;;;;;4988594;28;20025;-84
2023/02/17 10:34:10;;;;;;;12.18;11.07;;;14.30;99.90;;;;;;4991428;28;20042;-82
2023/02/17 10:36:46;;;;;;;19.13;17.23;;;14.40;99.90;;;;;;5007544;28;20026;-84
2023/02/17 10:39:50;;;;;;;13.55;12.27;;;14.40;99.90;;;;;;5025423;28;20392;-83
2023/02/17 10:42:36;;;;;;;11.98;10.90;;;14.50;99.90;;;;;;5009618;28;20034;-83
2023/02/17 10:45:04;;;;;;;12.10;10.95;;;14.50;99.90;;;;;;5038813;28;20036;-84
2023/02/17 10:47:31;;;;;;;14.73;10.68;;;14.50;99.90;;;;;;4996345;28;20058;-87
2023/02/17 10:49:57;;;;;;;11.88;10.68;;;14.50;99.90;;;;;;4974478;28;20595;-89
2023/02/17 10:52:38;;;;;;;11.13;10.13;;;14.60;99.90;;;;;;5000016;28;20030;-84
2023/02/17 10:55:07;;;;;;;10.30;9.20;;;14.70;99.90;;;;;;4984821;28;20022;-85
2023/02/17 10:57:35;;;;;;;10.07;9.07;;;14.70;99.90;;;;;;5009464;28;20041;-85
2023/02/17 11:00:03;;;;;;;10.77;9.77;;;14.70;99.90;;;;;;4997183;28;20026;-88
2023/02/17 11:02:40;;;;;;;9.00;8.15;;;14.80;99.90;;;;;;5011026;28;20045;-84
2023/02/17 11:05:06;;;;;;;10.02;8.25;;;14.90;99.90;;;;;;5023608;28;20074;-84
2023/02/17 11:07:34;;;;;;;8.20;7.60;;;15.00;99.90;;;;;;5028256;28;20045;-87
2023/02/17 11:10:02;;;;;;;8.63;7.93;;;15.10;99.90;;;;;;5044382;28;20026;-85
2023/02/17 11:12:40;;;;;;;8.05;7.45;;;15.20;99.90;;;;;;5043383;28;20030;-85
2023/02/17 11:15:20;;;;;;;7.47;6.97;;;15.20;99.90;;;;;;5042785;28;20041;-89
2023/02/17 11:17:46;;;;;;;7.93;7.32;;;15.20;99.90;;;;;;5020762;28;20038;-80
2023/02/17 11:20:15;;;;;;;7.32;6.72;;;15.20;99.90;;;;;;5004822;28;20046;-83
2023/02/17 11:22:47;;;;;;;8.48;7.78;;;15.20;99.90;;;;;;4999867;28;20027;-80
2023/02/17 11:25:24;;;;;;;7.22;6.68;;;15.30;99.90;;;;;;5010616;28;20101;-80
2023/02/17 11:27:51;;;;;;;7.00;6.40;;;15.30;99.90;;;;;;5024051;28;20045;-80
2023/02/17 11:30:18;;;;;;;7.63;7.03;;;15.30;99.90;;;;;;4994088;28;20033;-81
2023/02/17 11:32:44;;;;;;;7.28;6.70;;;15.30;99.90;;;;;;4988015;28;20037;-80
2023/02/17 11:35:52;;;;;;;6.53;5.82;;;15.30;99.90;;;;;;5043793;28;20053;-81
2023/02/17 11:38:24;;;;;;;6.40;5.80;;;15.40;99.90;;;;;;5021367;28;20038;-83
2023/02/17 11:40:58;;;;;;;7.57;6.97;;;15.40;99.90;;;;;;5015017;28;20046;-82
2023/02/17 11:43:27;;;;;;;7.13;6.57;;;15.40;99.90;;;;;;4993473;28;20041;-81
2023/02/17 11:46:21;;;;;;;7.97;7.30;;;15.50;99.90;;;;;;5013131;28;20036;-82
2023/02/17 11:49:06;;;;;;;7.80;7.20;;;15.50;99.90;;;;;;5018513;28;20395;-82
2023/02/17 11:51:44;;;;;;;7.97;7.22;;;15.50;99.90;;;;;;4994379;28;20040;-84
2023/02/17 11:54:20;;;;;;;7.63;7.00;;;15.50;99.90;;;;;;4992195;28;20487;-83
2023/02/17 11:56:58;;;;;;;7.07;6.47;;;15.50;99.90;;;;;;5013535;28;20037;-82
2023/02/17 11:59:52;;;;;;;8.45;7.65;;;15.50;99.90;;;;;;5007694;28;20506;-81
2023/02/17 12:02:47;;;;;;;7.75;7.05;;;15.50;99.90;;;;;;5008232;28;20041;-81
2023/02/17 12:05:34;;;;;;;9.63;8.15;;;15.50;99.90;;;;;;4951095;28;20050;-83
2023/02/17 12:08:12;;;;;;;8.23;7.53;;;15.60;99.90;;;;;;4956329;28;20055;-81
2023/02/17 12:10:44;;;;;;;7.97;7.22;;;15.60;99.90;;;;;;4965693;28;20061;-83
2023/02/17 12:13:14;;;;;;;8.35;7.65;;;15.60;99.90;;;;;;4944820;29;20050;-81
2023/02/17 12:16:17;;;;;;;8.30;7.53;;;15.60;99.90;;;;;;4961479;28;20035;-84
2023/02/17 12:19:00;;;;;;;8.55;7.85;;;15.60;99.90;;;;;;4966625;28;20332;-82
2023/02/17 12:21:44;;;;;;;7.93;7.32;;;15.60;99.90;;;;;;4963106;28;20050;-87
2023/02/17 12:24:38;;;;;;;8.85;8.18;;;15.60;99.90;;;;;;4984529;28;20043;-84
2023/02/17 12:27:18;;;;;;;8.90;8.20;;;15.60;99.90;;;;;;4967253;28;20072;-89
2023/02/17 12:30:04;;;;;;;8.38;7.57;;;15.70;99.90;;;;;;4985818;28;20115;-84
2023/02/17 12:32:42;;;;;;;12.48;11.32;;;15.70;99.90;;;;;;4995720;28;20204;-86
2023/02/17 12:35:33;;;;;;;9.18;8.38;;;15.60;99.90;;;;;;4953968;29;20059;-81
2023/02/17 12:38:08;;;;;;;9.43;8.60;;;15.70;99.90;;;;;;4961870;28;20034;-82
2023/02/17 12:40:38;;;;;;;9.70;8.80;;;15.70;99.90;;;;;;4949833;29;20178;-84
2023/02/17 12:43:30;;;;;;;10.45;9.55;;;15.70;99.90;;;;;;4966830;28;20038;-82
2023/02/17 12:45:57;;;;;;;9.13;8.40;;;15.80;99.90;;;;;;5018228;28;20038;-82
2023/02/17 12:48:44;;;;;;;10.50;9.65;;;15.70;99.90;;;;;;5029885;28;20034;-82
2023/02/17 12:51:14;;;;;;;10.02;9.13;;;15.80;99.90;;;;;;4994051;28;20383;-83
2023/02/17 12:53:56;;;;;;;11.23;10.30;;;15.80;99.90;;;;;;5023007;28;20037;-80
2023/02/17 12:56:27;;;;;;;11.07;10.27;;;15.90;99.90;;;;;;5042326;28;20296;-82